createdAt,value
2023-07-03T00:00:54.990Z,14.6
2023-07-03T00:03:24.205Z,14.6
2023-07-03T00:04:35.627Z,14.6
2023-07-03T00:05:47.109Z,14.6
2023-07-03T00:07:00.118Z,14.6
2023-07-03T00:08:13.053Z,14.6
2023-07-03T00:09:25.839Z,14.6
2023-07-03T00:11:54.093Z,14.6
2023-07-03T00:13:05.280Z,14.6
2023-07-03T00:14:18.148Z,14.6
2023-07-03T00:15:31.140Z,14.6
2023-07-03T00:16:44.003Z,14.6
2023-07-03T00:18:03.255Z,14.5
2023-07-03T00:19:13.155Z,14.4
2023-07-03T00:20:23.734Z,14.4
2023-07-03T00:21:35.956Z,14.4
2023-07-03T00:22:48.948Z,14.4
2023-07-03T00:24:01.908Z,14.4
2023-07-03T00:25:21.239Z,14.3
2023-07-03T00:26:31.138Z,14.3
2023-07-03T00:27:42.134Z,14.3
2023-07-03T00:28:54.095Z,14.3
2023-07-03T00:30:06.973Z,14.3
2023-07-03T00:31:19.994Z,14.3
2023-07-03T00:33:50.240Z,14.3
2023-07-03T00:35:00.579Z,14.3
2023-07-03T00:36:12.104Z,14.2
2023-07-03T00:37:25.040Z,14.2
2023-07-03T00:38:37.990Z,14.2
2023-07-03T00:42:21.397Z,14
2023-07-03T00:43:30.330Z,14
2023-07-03T00:44:42.922Z,14
2023-07-03T00:45:55.956Z,14
2023-07-03T00:47:09.051Z,14.1
2023-07-03T00:48:28.106Z,13.9
2023-07-03T00:50:48.832Z,13.9
2023-07-03T00:52:01.156Z,13.9
2023-07-03T00:53:15.980Z,13.9
2023-07-03T00:54:27.013Z,13.9
2023-07-03T00:55:46.255Z,13.8
2023-07-03T00:56:55.908Z,13.8
2023-07-03T00:58:07.271Z,13.8
2023-07-03T00:59:18.974Z,13.8
2023-07-03T01:00:31.947Z,13.6
2023-07-03T01:01:45.245Z,13.6
2023-07-03T01:03:04.029Z,13.7
2023-07-03T01:04:16.254Z,13.7
2023-07-03T01:05:25.818Z,13.7
2023-07-03T01:06:37.001Z,13.7
2023-07-03T01:07:49.978Z,13.7
2023-07-03T01:09:02.961Z,13.7
2023-07-03T01:10:15.964Z,13.7
2023-07-03T01:11:33.214Z,13.7
2023-07-03T01:13:55.747Z,13.5
2023-07-03T01:15:07.947Z,13.5
2023-07-03T01:16:20.983Z,13.5
2023-07-03T01:17:33.992Z,13.5
2023-07-03T01:18:53.203Z,13.5
2023-07-03T01:20:03.123Z,13.5
2023-07-03T01:21:13.871Z,13.5
2023-07-03T01:22:26.012Z,13.5
2023-07-03T01:23:39.018Z,13.5
2023-07-03T01:24:51.983Z,13.5
2023-07-03T01:26:11.125Z,13.5
2023-07-03T01:27:23.030Z,13.3
2023-07-03T01:28:32.314Z,13.3
2023-07-03T01:29:43.994Z,13.3
2023-07-03T01:30:56.951Z,13.3
2023-07-03T01:32:09.885Z,13.3
2023-07-03T01:33:29.140Z,13.4
2023-07-03T01:35:50.924Z,13.4
2023-07-03T01:37:02.098Z,13.4
2023-07-03T01:38:14.983Z,13.4
2023-07-03T01:39:27.964Z,13.4
2023-07-03T01:40:40.945Z,13.4
2023-07-03T01:41:58.470Z,13.2
2023-07-03T01:43:09.374Z,13.2
2023-07-03T01:44:20.486Z,13.2
2023-07-03T01:46:45.997Z,13.2
2023-07-03T01:47:58.964Z,13.2
2023-07-03T01:49:18.256Z,13.2
2023-07-03T01:50:28.794Z,13.2
2023-07-03T01:51:38.940Z,13.2
2023-07-03T01:52:50.962Z,13.2
2023-07-03T01:54:03.933Z,13.2
2023-07-03T01:55:16.997Z,13.1
2023-07-03T01:56:36.206Z,13.1
2023-07-03T01:57:47.162Z,13.1
2023-07-03T01:58:57.393Z,13.1
2023-07-03T02:00:08.999Z,13.1
2023-07-03T02:01:21.997Z,13.1
2023-07-03T02:02:35.230Z,13.1
2023-07-03T02:03:54.209Z,13.1
2023-07-03T02:06:15.791Z,13.1
2023-07-03T02:07:27.124Z,13.1
2023-07-03T02:08:39.950Z,13.1
2023-07-03T02:09:52.947Z,13.1
2023-07-03T02:11:05.972Z,13.1
2023-07-03T02:12:23.193Z,13.1
2023-07-03T02:13:35.005Z,13.1
2023-07-03T02:14:45.593Z,13.1
2023-07-03T02:15:57.922Z,13.1
2023-07-03T02:17:11.140Z,13.1
2023-07-03T02:18:23.959Z,13.1
2023-07-03T02:19:43.247Z,13
2023-07-03T02:20:53.266Z,13
2023-07-03T02:22:04.023Z,13
2023-07-03T02:23:15.947Z,13
2023-07-03T02:24:28.658Z,13
2023-07-03T02:25:42.154Z,13
2023-07-03T02:27:00.662Z,13
2023-07-03T02:28:11.968Z,13
2023-07-03T02:29:22.547Z,13
2023-07-03T02:30:34.170Z,13
2023-07-03T02:31:46.957Z,13
2023-07-03T02:33:00.210Z,13
2023-07-03T02:34:19.352Z,13
2023-07-03T02:35:30.150Z,13
2023-07-03T02:36:41.974Z,13
2023-07-03T02:37:52.516Z,13
2023-07-03T02:39:04.918Z,13
2023-07-03T02:40:18.004Z,13
2023-07-03T02:41:30.937Z,13
2023-07-03T02:42:48.601Z,13.1
2023-07-03T02:44:00.038Z,13.2
2023-07-03T02:45:10.751Z,13.2
2023-07-03T02:46:23.241Z,13.2
2023-07-03T02:47:35.971Z,13.1
2023-07-03T02:48:48.972Z,13.1
2023-07-03T02:50:08.735Z,13.1
2023-07-03T02:51:18.379Z,13.1
2023-07-03T02:52:29.187Z,13.1
2023-07-03T02:53:40.963Z,13.1
2023-07-03T02:54:53.937Z,13.1
2023-07-03T02:56:06.916Z,13.1
2023-07-03T02:57:26.113Z,13.1
2023-07-03T02:58:36.964Z,13.1
2023-07-03T02:59:47.609Z,13.1
2023-07-03T03:43:38.097Z,13.1
2023-07-03T03:44:48.653Z,13.1
2023-07-03T03:45:59.987Z,13.1
2023-07-03T03:47:12.825Z,13.1
2023-07-03T03:48:26.148Z,13.2
2023-07-03T03:49:39.034Z,13.2
2023-07-03T03:50:56.045Z,13.2
2023-07-03T03:52:08.028Z,13.2
2023-07-03T03:53:18.574Z,13.2
2023-07-03T03:54:30.863Z,13.2
2023-07-03T03:55:43.866Z,13.2
2023-07-03T03:56:56.736Z,13.2
2023-07-03T03:58:16.334Z,13.3
2023-07-03T03:59:25.476Z,13.4
2023-07-03T04:00:36.829Z,13.4
2023-07-03T04:01:48.876Z,13.4
2023-07-03T04:03:01.896Z,13.3
2023-07-03T04:04:15.110Z,13.3
2023-07-03T04:06:45.008Z,13.3
2023-07-03T04:07:55.235Z,13.4
2023-07-03T04:09:06.858Z,13.5
2023-07-03T04:10:20.028Z,13.5
2023-07-03T04:11:33.034Z,13.5
2023-07-03T04:12:52.060Z,13.5
2023-07-03T04:14:03.039Z,13.5
2023-07-03T04:15:13.651Z,13.7
2023-07-03T04:16:24.982Z,13.7
2023-07-03T04:17:37.861Z,13.6
2023-07-03T04:18:51.164Z,13.6
2023-07-03T04:20:03.861Z,13.6
2023-07-03T04:21:21.030Z,13.8
2023-07-03T04:22:33.058Z,13.8
2023-07-03T04:23:43.324Z,13.8
2023-07-03T04:24:55.836Z,14
2023-07-03T04:26:08.931Z,14
2023-07-03T04:27:22.163Z,14
2023-07-03T04:28:40.990Z,14
2023-07-03T04:29:51.035Z,14
2023-07-03T04:31:01.801Z,14
2023-07-03T04:32:13.850Z,14
2023-07-03T04:33:26.830Z,14
2023-07-03T04:34:39.816Z,14.1
2023-07-03T04:35:59.038Z,14.2
2023-07-03T04:38:20.282Z,14.2
2023-07-03T04:39:31.847Z,14.2
2023-07-03T04:40:44.888Z,14.2
2023-07-03T04:41:57.886Z,14.3
2023-07-03T04:45:38.624Z,14.3
2023-07-03T04:46:50.182Z,14.3
2023-07-03T04:48:02.838Z,14.3
2023-07-03T04:49:15.835Z,14.4
2023-07-03T04:50:28.859Z,14.4
2023-07-03T04:51:46.041Z,14.4
2023-07-03T04:54:08.329Z,14.4
2023-07-03T04:55:20.871Z,14.6
2023-07-03T04:56:34.012Z,14.6
2023-07-03T04:57:46.856Z,14.6
2023-07-03T04:59:04.434Z,14.6
2023-07-03T05:00:15.454Z,14.6
2023-07-03T05:01:26.874Z,14.6
2023-07-03T05:02:38.881Z,14.7
2023-07-03T05:03:52.042Z,14.7
2023-07-03T05:05:04.804Z,14.7
2023-07-03T05:06:23.936Z,14.7
2023-07-03T05:07:35.013Z,14.7
2023-07-03T05:08:45.226Z,14.7
2023-07-03T05:09:56.865Z,14.9
2023-07-03T05:11:09.869Z,14.9
2023-07-03T05:12:22.849Z,14.9
2023-07-03T05:13:41.976Z,14.9
2023-07-03T05:14:52.968Z,14.9
2023-07-03T05:16:03.689Z,15.1
2023-07-03T05:17:15.000Z,15.1
2023-07-03T05:18:27.870Z,15.1
2023-07-03T05:19:40.843Z,15.1
2023-07-03T05:20:53.845Z,15.1
2023-07-03T05:22:11.791Z,14.9
2023-07-03T05:24:33.419Z,14.9
2023-07-03T05:25:45.865Z,14.9
2023-07-03T05:26:58.862Z,14.9
2023-07-03T05:28:11.850Z,15.2
2023-07-03T05:29:30.978Z,15.2
2023-07-03T05:30:40.992Z,15.2
2023-07-03T05:31:51.882Z,15.2
2023-07-03T05:33:03.874Z,15.2
2023-07-03T05:34:16.891Z,15.3
2023-07-03T05:35:30.012Z,15.3
2023-07-03T05:36:49.011Z,15.3
2023-07-03T05:38:00.105Z,15.3
2023-07-03T05:39:10.257Z,15.3
2023-07-03T05:40:21.857Z,15.3
2023-07-03T05:41:34.816Z,15.3
2023-07-03T05:42:47.843Z,15.3
2023-07-03T05:44:07.033Z,15.3
2023-07-03T05:45:17.262Z,15.4
2023-07-03T05:46:28.760Z,15.5
2023-07-03T05:47:40.009Z,15.5
2023-07-03T05:48:53.034Z,15.5
2023-07-03T05:50:05.899Z,15.5
2023-07-03T05:51:18.840Z,15.5
2023-07-03T05:52:36.009Z,15.5
2023-07-03T05:53:48.031Z,15.5
2023-07-03T05:54:58.390Z,15.5
2023-07-03T05:56:10.937Z,15.5
2023-07-03T05:57:24.013Z,15.5
2023-07-03T05:58:36.968Z,15.5
2023-07-03T05:59:56.033Z,15.5
2023-07-03T06:01:06.050Z,15.5
2023-07-03T06:02:16.872Z,15.5
2023-07-03T06:03:29.046Z,15.5
2023-07-03T06:04:41.891Z,15.5
2023-07-03T06:05:55.153Z,15.5
2023-07-03T06:07:14.690Z,15.5
2023-07-03T06:08:25.071Z,15.7
2023-07-03T06:09:36.377Z,15.7
2023-07-03T06:10:46.876Z,15.7
2023-07-03T06:11:59.945Z,15.7
2023-07-03T06:13:12.947Z,15.7
2023-07-03T06:15:42.994Z,15.7
2023-07-03T06:16:56.827Z,15.7
2023-07-03T06:18:05.007Z,15.7
2023-07-03T06:19:17.830Z,15.8
2023-07-03T06:20:30.834Z,15.8
2023-07-03T06:21:43.802Z,15.8
2023-07-03T06:24:13.065Z,15.9
2023-07-03T06:25:23.524Z,16
2023-07-03T06:26:35.808Z,16
2023-07-03T06:27:48.784Z,16
2023-07-03T06:29:01.815Z,16.1
2023-07-03T06:30:21.021Z,16.1
2023-07-03T06:31:30.484Z,16.1
2023-07-03T06:32:41.820Z,16.1
2023-07-03T06:33:53.864Z,16.1
2023-07-03T06:35:07.304Z,16.1
2023-07-03T06:36:19.916Z,16.1
2023-07-03T06:37:39.107Z,16.3
2023-07-03T06:38:50.999Z,16.4
2023-07-03T06:40:00.282Z,16.4
2023-07-03T06:41:11.874Z,16.6
2023-07-03T06:42:26.775Z,16.7
2023-07-03T06:43:37.715Z,16.8
2023-07-03T06:47:18.660Z,17.2
2023-07-03T06:48:30.292Z,17.3
2023-07-03T06:49:42.843Z,17.3
2023-07-03T06:50:55.876Z,17.5
2023-07-03T06:52:08.909Z,17.6
2023-07-03T06:55:48.610Z,18.1
2023-07-03T06:57:00.819Z,18.2
2023-07-03T06:58:13.830Z,18.2
2023-07-03T06:59:26.805Z,18.4
2023-07-03T07:03:06.966Z,18.6
2023-07-03T07:04:19.023Z,18.7
2023-07-03T07:06:44.681Z,18.9
2023-07-03T07:10:25.308Z,19.3
2023-07-03T07:11:36.799Z,19.3
2023-07-03T07:12:49.850Z,19.3
2023-07-03T07:14:03.163Z,19.4
2023-07-03T07:16:33.911Z,19.5
2023-07-03T07:17:51.540Z,19.6
2023-07-03T07:18:55.225Z,19.5
2023-07-03T07:20:07.843Z,19.5
2023-07-03T07:21:20.827Z,19.7
2023-07-03T07:22:33.862Z,19.7
2023-07-03T07:25:02.011Z,19.8
2023-07-03T07:26:13.384Z,19.9
2023-07-03T07:27:25.976Z,19.9
2023-07-03T07:28:38.707Z,20
2023-07-03T07:29:51.861Z,20.1
2023-07-03T07:32:20.546Z,20.1
2023-07-03T07:33:31.855Z,20.1
2023-07-03T07:34:43.851Z,20.2
2023-07-03T07:35:56.873Z,20.3
2023-07-03T07:37:09.734Z,20.3
2023-07-03T07:40:50.245Z,20.4
2023-07-03T07:42:02.341Z,20.4
2023-07-03T07:43:14.885Z,20.6
2023-07-03T07:44:27.822Z,20.6
2023-07-03T07:48:08.686Z,20.6
2023-07-03T07:49:19.958Z,20.5
2023-07-03T07:50:32.801Z,20.4
2023-07-03T07:51:46.171Z,20.4
2023-07-03T07:52:58.965Z,20.3
2023-07-03T07:56:38.438Z,20.4
2023-07-03T07:57:50.788Z,20.4
2023-07-03T07:59:03.805Z,20.4
2023-07-03T08:00:16.692Z,20.4
2023-07-03T08:03:56.887Z,20.4
2023-07-03T08:05:08.655Z,20.4
2023-07-03T08:06:21.792Z,20.3
2023-07-03T08:07:34.796Z,20.3
2023-07-03T08:11:15.275Z,20.4
2023-07-03T08:12:26.749Z,20.5
2023-07-03T08:13:39.657Z,20.6
2023-07-03T08:14:52.642Z,20.6
2023-07-03T08:18:33.654Z,20.8
2023-07-03T08:19:44.948Z,20.7
2023-07-03T08:20:57.838Z,20.9
2023-07-03T08:22:11.034Z,20.9
2023-07-03T08:23:23.796Z,20.9
2023-07-03T08:24:42.979Z,20.9
2023-07-03T08:25:54.230Z,20.9
2023-07-03T08:27:03.337Z,20.8
2023-07-03T08:28:15.638Z,20.8
2023-07-03T08:29:28.946Z,20.9
2023-07-03T08:30:41.970Z,20.9
2023-07-03T08:33:12.721Z,21.2
2023-07-03T08:52:35.495Z,21.2
2023-07-03T09:13:16.538Z,22.3
2023-07-03T09:14:29.752Z,22.3
2023-07-03T09:21:47.920Z,22.3
2023-07-03T09:31:31.631Z,21.9
2023-07-03T09:36:23.730Z,21.8
2023-07-03T09:37:36.616Z,21.8
2023-07-03T09:38:49.601Z,21.8
2023-07-03T09:44:55.225Z,21.6
2023-07-03T09:51:06.915Z,21.4
2023-07-03T09:52:12.766Z,21.4
2023-07-03T09:53:25.629Z,21.4
2023-07-03T09:54:38.654Z,21.3
2023-07-03T10:00:44.471Z,21.3
2023-07-03T10:08:02.439Z,21.1
2023-07-03T10:12:55.189Z,21.1
2023-07-03T10:15:19.733Z,21.1
2023-07-03T10:16:32.452Z,21.1
2023-07-03T10:20:13.527Z,21.1
2023-07-03T10:21:24.821Z,21.1
2023-07-03T10:23:50.427Z,21.1
2023-07-03T10:25:03.687Z,21.1
2023-07-03T10:27:29.738Z,21.1
2023-07-03T10:28:42.848Z,21.1
2023-07-03T10:32:21.491Z,21.1
2023-07-03T10:34:47.650Z,21.2
2023-07-03T10:38:27.269Z,20.7
2023-07-03T10:39:39.483Z,20.8
2023-07-03T10:44:31.680Z,20.4
2023-07-03T10:46:57.840Z,20.3
2023-07-03T10:48:10.472Z,20.3
2023-07-03T10:50:37.555Z,20.4
2023-07-03T10:54:15.714Z,20.4
2023-07-03T10:55:28.705Z,20.4
2023-07-03T11:00:20.799Z,20.6
2023-07-03T11:05:12.461Z,20.6
2023-07-03T11:06:25.642Z,20.6
2023-07-03T11:24:41.073Z,21.4
2023-07-03T11:29:32.624Z,21.6
2023-07-03T11:36:57.139Z,22
2023-07-03T11:45:21.621Z,22.1
2023-07-03T11:46:34.767Z,22.1
2023-07-03T11:47:47.629Z,22.3
2023-07-03T11:49:01.365Z,22.1
2023-07-03T11:50:13.700Z,22.1
2023-07-03T11:51:26.616Z,22.2
2023-07-03T11:52:40.653Z,22
2023-07-03T11:53:52.831Z,22
2023-07-03T11:55:05.395Z,22
2023-07-03T11:56:18.602Z,21.9
2023-07-03T11:57:31.923Z,21.8
2023-07-03T11:58:44.725Z,21.8
2023-07-03T11:59:57.652Z,21.6
2023-07-03T12:01:10.654Z,21.6
2023-07-03T12:03:36.704Z,21.4
2023-07-03T12:04:50.414Z,21.4
2023-07-03T12:06:02.723Z,21.3
2023-07-03T12:07:15.627Z,21.3
2023-07-03T12:08:28.748Z,21.3
2023-07-03T12:09:41.801Z,21.3
2023-07-03T12:10:56.320Z,21.3
2023-07-03T12:12:07.708Z,21.2
2023-07-03T12:13:20.401Z,21.1
2023-07-03T12:15:46.561Z,21.2
2023-07-03T12:16:59.730Z,21.3
2023-07-03T12:18:12.698Z,21.3
2023-07-03T12:19:25.699Z,21.4
2023-07-03T12:20:38.758Z,21.5
2023-07-03T12:21:51.422Z,21.6
2023-07-03T12:23:04.419Z,21.6
2023-07-03T12:24:17.454Z,21.6
2023-07-03T12:26:43.554Z,21.8
2023-07-03T12:27:56.700Z,21.8
2023-07-03T12:29:09.873Z,21.8
2023-07-03T12:30:22.742Z,21.8
2023-07-03T12:31:35.740Z,21.8
2023-07-03T12:32:48.734Z,21.8
2023-07-03T12:34:01.666Z,21.8
2023-07-03T12:35:14.698Z,22
2023-07-03T12:36:27.673Z,22
2023-07-03T12:37:40.587Z,22
2023-07-03T12:38:53.383Z,22
2023-07-03T12:40:06.758Z,22.2
2023-07-03T12:41:19.544Z,22.2
2023-07-03T12:42:32.708Z,22.2
2023-07-03T12:43:48.643Z,22.2
2023-07-03T12:44:58.715Z,22.3
2023-07-03T12:46:11.835Z,22.3
2023-07-03T12:47:24.733Z,22.3
2023-07-03T12:48:37.545Z,22.3
2023-07-03T12:49:50.717Z,22.3
2023-07-03T12:51:03.570Z,22.3
2023-07-03T12:52:23.139Z,22.6
2023-07-03T12:53:32.883Z,22.6
2023-07-03T12:54:43.529Z,22.5
2023-07-03T12:55:55.714Z,22.5
2023-07-03T12:57:08.540Z,22.5
2023-07-03T12:58:21.839Z,22.5
2023-07-03T12:59:39.767Z,22.5
2023-07-03T13:00:51.847Z,22.5
2023-07-03T13:02:01.976Z,22.6
2023-07-03T13:03:13.702Z,22.6
2023-07-03T13:04:26.730Z,22.4
2023-07-03T13:05:39.823Z,22.3
2023-07-03T13:06:58.787Z,22.4
2023-07-03T13:08:09.998Z,22.6
2023-07-03T13:09:20.436Z,22.6
2023-07-03T13:10:31.674Z,22.6
2023-07-03T13:11:44.666Z,22.6
2023-07-03T13:12:57.622Z,22.6
2023-07-03T13:14:10.676Z,22.3
2023-07-03T13:15:23.687Z,22.3
2023-07-03T13:16:37.079Z,22.3
2023-07-03T13:17:49.854Z,22.3
2023-07-03T13:19:02.667Z,22.3
2023-07-03T13:20:15.753Z,22.1
2023-07-03T13:21:28.665Z,22.1
2023-07-03T13:22:41.687Z,22.2
2023-07-03T13:23:54.649Z,22.2
2023-07-03T13:25:07.668Z,22.1
2023-07-03T13:26:20.824Z,22.3
2023-07-03T13:27:33.642Z,22.3
2023-07-03T13:28:46.656Z,22.3
2023-07-03T13:29:59.662Z,22.6
2023-07-03T13:31:12.783Z,22.6
2023-07-03T13:32:25.643Z,22.6
2023-07-03T13:33:38.640Z,22.5
2023-07-03T13:34:51.682Z,22.5
2023-07-03T13:36:04.688Z,22.5
2023-07-03T13:37:17.724Z,22.5
2023-07-03T13:38:30.668Z,22.5
2023-07-03T13:39:46.538Z,22.5
2023-07-03T13:40:56.748Z,22.5
2023-07-03T13:42:11.190Z,22.5
2023-07-03T13:43:22.709Z,22.5
2023-07-03T13:44:36.342Z,22.5
2023-07-03T13:45:48.946Z,22.5
2023-07-03T13:47:01.672Z,22.5
2023-07-03T13:48:14.684Z,22.5
2023-07-03T13:49:27.626Z,22.5
2023-07-03T13:50:40.656Z,22.5
2023-07-03T13:51:53.642Z,22.5
2023-07-03T13:53:06.888Z,22.5
2023-07-03T13:54:19.658Z,22.5
2023-07-03T13:55:32.626Z,22.5
2023-07-03T13:56:45.676Z,22.5
2023-07-03T13:57:58.646Z,22.5
2023-07-03T13:59:11.664Z,22.5
2023-07-03T14:00:24.666Z,22.5
2023-07-03T14:01:37.722Z,22.6
2023-07-03T14:02:50.732Z,22.7
2023-07-03T14:04:03.713Z,22.7
2023-07-03T14:05:16.706Z,22.7
2023-07-03T14:06:29.836Z,22.7
2023-07-03T14:07:42.901Z,22.7
2023-07-03T14:08:55.673Z,22.7
2023-07-03T14:10:08.730Z,22.7
2023-07-03T14:11:21.663Z,22.7
2023-07-03T14:12:34.687Z,22.7
2023-07-03T14:13:47.661Z,22.7
2023-07-03T14:15:00.627Z,22.9
2023-07-03T14:16:13.670Z,22.9
2023-07-03T14:17:26.750Z,22.9
2023-07-03T14:18:39.685Z,22.8
2023-07-03T14:19:52.631Z,22.8
2023-07-03T14:21:05.652Z,22.9
2023-07-03T14:22:18.686Z,23.1
2023-07-03T14:23:31.669Z,23.1
2023-07-03T14:24:44.677Z,23.1
2023-07-03T14:25:57.672Z,23.1
2023-07-03T14:27:10.688Z,23.1
2023-07-03T14:28:23.771Z,23.1
2023-07-03T14:29:36.744Z,23.1
2023-07-03T14:30:49.857Z,23.1
2023-07-03T14:32:02.783Z,23.1
2023-07-03T14:33:15.709Z,23.1
2023-07-03T14:34:28.703Z,23.1
2023-07-03T14:35:41.706Z,23.1
2023-07-03T14:36:54.715Z,23.1
2023-07-03T14:38:07.666Z,23.1
2023-07-03T14:39:20.856Z,22.8
2023-07-03T14:40:33.749Z,22.8
2023-07-03T14:41:46.754Z,22.8
2023-07-03T14:42:59.663Z,22.8
2023-07-03T14:44:12.675Z,22.8
2023-07-03T14:45:25.658Z,22.8
2023-07-03T14:46:38.653Z,22.8
2023-07-03T14:47:51.714Z,22.8
2023-07-03T14:49:04.623Z,22.8
2023-07-03T14:50:17.671Z,22.8
2023-07-03T14:51:30.678Z,22.8
2023-07-03T14:52:43.679Z,22.9
2023-07-03T14:53:56.638Z,22.9
2023-07-03T14:55:09.614Z,22.9
2023-07-03T14:56:22.663Z,22.9
2023-07-03T14:57:35.617Z,22.9
2023-07-03T14:58:48.823Z,22.8
2023-07-03T15:00:01.818Z,22.9
2023-07-03T15:01:14.768Z,22.8
2023-07-03T15:02:27.827Z,23.1
2023-07-03T15:03:40.872Z,23.1
2023-07-03T15:04:53.766Z,23.1
2023-07-03T15:06:07.384Z,23.1
2023-07-03T15:07:19.705Z,22.8
2023-07-03T15:08:32.708Z,22.8
2023-07-03T15:09:45.693Z,22.8
2023-07-03T15:10:58.692Z,22.8
2023-07-03T15:12:11.334Z,22.8
2023-07-03T15:13:24.705Z,22.8
2023-07-03T15:14:37.679Z,22.8
2023-07-03T15:15:51.309Z,22.8
2023-07-03T15:17:03.716Z,22.8
2023-07-03T15:18:16.680Z,22.8
2023-07-03T15:19:29.535Z,22.8
2023-07-03T15:20:42.651Z,22.9
2023-07-03T15:21:55.831Z,22.8
2023-07-03T15:23:08.791Z,22.9
2023-07-03T15:24:21.661Z,22.9
2023-07-03T15:25:34.691Z,22.7
2023-07-03T15:26:47.970Z,22.7
2023-07-03T15:28:00.647Z,22.7
2023-07-03T15:29:13.655Z,22.9
2023-07-03T15:30:26.641Z,22.9
2023-07-03T15:31:42.043Z,22.8
2023-07-03T15:32:52.866Z,23.1
2023-07-03T15:34:05.642Z,23.1
2023-07-03T15:35:18.676Z,23.1
2023-07-03T15:36:31.627Z,23.1
2023-07-03T15:37:44.639Z,23.1
2023-07-03T15:38:57.486Z,22.8
2023-07-03T15:40:10.652Z,22.8
2023-07-03T15:41:23.728Z,22.8
2023-07-03T15:42:36.617Z,22.8
2023-07-03T15:43:49.825Z,22.8
2023-07-03T15:45:02.601Z,22.9
2023-07-03T15:46:15.799Z,22.9
2023-07-03T15:47:28.734Z,22.9
2023-07-03T15:48:41.641Z,22.9
2023-07-03T15:49:54.620Z,22.9
2023-07-03T15:51:07.598Z,22.9
2023-07-03T15:52:20.638Z,22.9
2023-07-03T15:53:33.434Z,22.9
2023-07-03T15:54:46.603Z,22.9
2023-07-03T15:55:59.452Z,22.9
2023-07-03T15:57:12.604Z,22.9
2023-07-03T15:58:25.586Z,22.9
2023-07-03T15:59:38.658Z,22.9
2023-07-03T16:00:51.604Z,22.9
2023-07-03T16:02:04.625Z,22.9
2023-07-03T16:03:17.583Z,22.9
2023-07-03T16:04:30.621Z,22.9
2023-07-03T16:05:43.756Z,22.9
2023-07-03T16:06:56.582Z,22.9
2023-07-03T16:08:09.608Z,22.9
2023-07-03T16:09:22.595Z,22.7
2023-07-03T16:10:35.634Z,22.7
2023-07-03T16:11:48.595Z,22.7
2023-07-03T16:13:01.569Z,22.7
2023-07-03T16:14:14.571Z,22.7
2023-07-03T16:15:27.595Z,22.7
2023-07-03T16:16:40.592Z,22.7
2023-07-03T16:17:53.608Z,22.7
2023-07-03T16:19:06.613Z,22.7
2023-07-03T16:20:21.145Z,22.7
2023-07-03T16:21:32.654Z,22.7
2023-07-03T16:22:45.590Z,22.7
2023-07-03T16:23:58.679Z,22.5
2023-07-03T16:25:11.606Z,22.5
2023-07-03T16:26:24.777Z,22.6
2023-07-03T16:27:38.184Z,22.6
2023-07-03T16:28:50.608Z,22.6
2023-07-03T16:30:03.602Z,22.6
2023-07-03T16:31:16.686Z,22.6
2023-07-03T16:32:29.779Z,22.6
2023-07-03T16:33:42.581Z,22.6
2023-07-03T16:34:55.708Z,22.6
2023-07-03T16:36:08.698Z,22.6
2023-07-03T16:37:21.949Z,22.6
2023-07-03T16:38:34.466Z,22.6
2023-07-03T16:39:47.607Z,22.6
2023-07-03T16:41:00.596Z,22.6
2023-07-03T16:42:13.658Z,22.6
2023-07-03T16:43:26.663Z,22.6
2023-07-03T16:44:39.696Z,22.3
2023-07-03T16:45:52.797Z,22.3
2023-07-03T16:47:05.776Z,22.3
2023-07-03T16:48:18.586Z,22.6
2023-07-03T16:49:31.736Z,22.4
2023-07-03T16:50:44.616Z,22.3
2023-07-03T16:51:57.571Z,22.3
2023-07-03T16:53:10.551Z,22.3
2023-07-03T16:54:23.773Z,22.6
2023-07-03T16:55:36.613Z,22.6
2023-07-03T16:56:49.590Z,22.6
2023-07-03T16:58:02.728Z,22.6
2023-07-03T16:59:15.617Z,22.6
2023-07-03T17:00:28.582Z,22.6
2023-07-03T17:01:41.632Z,22.6
2023-07-03T17:02:54.681Z,22.3
2023-07-03T17:04:07.760Z,22.3
2023-07-03T17:05:21.322Z,22.3
2023-07-03T17:06:33.600Z,22.3
2023-07-03T17:07:46.582Z,22.3
2023-07-03T17:08:59.589Z,22.3
2023-07-03T17:10:12.574Z,22.3
2023-07-03T17:11:25.418Z,22.3
2023-07-03T17:12:38.449Z,22.3
2023-07-03T17:13:51.503Z,22.2
2023-07-03T17:15:04.633Z,22.2
2023-07-03T17:16:17.586Z,22.2
2023-07-03T17:17:30.709Z,22.2
2023-07-03T17:18:43.654Z,22.2
2023-07-03T17:19:56.724Z,22.2
2023-07-03T17:21:09.621Z,22
2023-07-03T17:22:22.697Z,22
2023-07-03T17:23:35.587Z,22
2023-07-03T17:24:48.760Z,22
2023-07-03T17:26:01.474Z,22
2023-07-03T17:27:14.747Z,22
2023-07-03T17:28:27.570Z,22
2023-07-03T17:29:40.642Z,22
2023-07-03T17:30:53.625Z,22
2023-07-03T17:32:06.615Z,21.8
2023-07-03T17:33:19.925Z,21.8
2023-07-03T17:34:32.743Z,21.8
2023-07-03T17:35:46.040Z,21.8
2023-07-03T17:36:58.577Z,21.8
2023-07-03T17:38:11.747Z,21.8
2023-07-03T17:39:24.643Z,21.6
2023-07-03T17:40:37.262Z,21.6
2023-07-03T17:41:50.563Z,21.6
2023-07-03T17:43:03.565Z,21.6
2023-07-03T17:44:16.567Z,21.6
2023-07-03T17:45:29.298Z,21.6
2023-07-03T17:46:42.614Z,21.7
2023-07-03T17:47:55.598Z,21.5
2023-07-03T17:49:08.768Z,21.5
2023-07-03T17:50:21.558Z,21.5
2023-07-03T17:51:34.406Z,21.5
2023-07-03T17:52:47.504Z,21.5
2023-07-03T17:54:00.570Z,21.5
2023-07-03T17:55:13.571Z,21.5
2023-07-03T17:56:26.598Z,21.5
2023-07-03T17:57:39.565Z,21.3
2023-07-03T17:58:52.579Z,21.3
2023-07-03T18:00:05.560Z,21.3
2023-07-03T18:01:19.137Z,21.3
2023-07-03T18:02:31.604Z,21.3
2023-07-03T18:03:44.727Z,21.2
2023-07-03T18:04:58.022Z,21.2
2023-07-03T18:06:10.579Z,21.2
2023-07-03T18:07:23.571Z,21.2
2023-07-03T18:08:38.304Z,21.2
2023-07-03T18:09:49.565Z,21.2
2023-07-03T18:11:02.637Z,20.9
2023-07-03T18:12:15.440Z,20.9
2023-07-03T18:13:28.585Z,20.9
2023-07-03T18:14:41.740Z,20.9
2023-07-03T18:15:55.066Z,21
2023-07-03T18:17:07.562Z,20.9
2023-07-03T18:18:20.414Z,20.8
2023-07-03T18:19:33.566Z,20.8
2023-07-03T18:20:46.549Z,20.8
2023-07-03T18:21:59.563Z,20.8
2023-07-03T18:23:12.591Z,20.8
2023-07-03T18:24:25.574Z,20.6
2023-07-03T18:26:51.594Z,20.6
2023-07-03T18:28:04.622Z,20.7
2023-07-03T18:29:17.643Z,20.6
2023-07-03T18:30:30.602Z,20.4
2023-07-03T18:31:43.691Z,20.4
2023-07-03T18:32:56.693Z,20.4
2023-07-03T18:34:10.791Z,20.4
2023-07-03T18:35:22.557Z,20.4
2023-07-03T18:36:35.582Z,20.3
2023-07-03T18:37:48.565Z,20.3
2023-07-03T18:40:14.480Z,20.3
2023-07-03T18:41:27.549Z,20.3
2023-07-03T18:42:40.599Z,20.3
2023-07-03T18:43:53.694Z,20.1
2023-07-03T18:45:06.525Z,20.1
2023-07-03T18:46:19.659Z,20.1
2023-07-03T18:47:32.563Z,20.1
2023-07-03T18:48:45.574Z,20.1
2023-07-03T18:49:58.590Z,20.1
2023-07-03T18:51:11.540Z,20
2023-07-03T18:52:24.773Z,19.9
2023-07-03T18:53:37.565Z,19.9
2023-07-03T18:54:50.278Z,19.9
2023-07-03T18:56:03.528Z,19.9
2023-07-03T18:57:16.548Z,19.8
2023-07-03T18:58:29.528Z,19.7
2023-07-03T18:59:42.526Z,19.8
2023-07-03T19:00:55.907Z,19.8
2023-07-03T19:02:08.546Z,19.8
2023-07-03T19:03:21.527Z,19.7
2023-07-03T19:04:34.948Z,19.6
2023-07-03T19:05:47.549Z,19.6
2023-07-03T19:07:00.551Z,19.6
2023-07-03T19:08:13.568Z,19.6
2023-07-03T19:09:26.532Z,19.6
2023-07-03T19:11:52.225Z,19.4
2023-07-03T19:13:05.507Z,19.4
2023-07-03T19:14:18.603Z,19.4
2023-07-03T19:15:31.698Z,19.4
2023-07-03T19:16:44.613Z,19.4
2023-07-03T19:17:57.569Z,19.4
2023-07-03T19:19:10.541Z,19.3
2023-07-03T19:20:23.639Z,19.3
2023-07-03T19:21:36.563Z,19.3
2023-07-03T19:22:49.601Z,19.3
2023-07-03T19:24:02.554Z,19.3
2023-07-03T19:25:15.504Z,19.2
2023-07-03T19:30:07.556Z,19.1
2023-07-03T19:31:20.405Z,19.1
2023-07-03T19:32:33.574Z,19.1
2023-07-03T19:33:46.560Z,19.1
2023-07-03T19:34:59.276Z,18.9
2023-07-03T19:36:12.516Z,18.9
2023-07-03T19:37:25.498Z,18.9
2023-07-03T19:38:38.416Z,18.9
2023-07-03T19:39:51.518Z,18.9
2023-07-03T19:41:04.832Z,18.9
2023-07-03T19:42:18.637Z,18.9
2023-07-03T19:43:30.854Z,18.9
2023-07-03T19:44:43.574Z,18.9
2023-07-03T19:45:56.538Z,18.7
2023-07-03T19:47:09.435Z,18.8
2023-07-03T19:48:22.572Z,18.7
2023-07-03T19:49:35.522Z,18.7
2023-07-03T19:50:48.536Z,18.8
2023-07-03T19:52:01.534Z,18.8
2023-07-03T19:53:14.542Z,18.8
2023-07-03T19:54:27.522Z,18.8
2023-07-03T19:55:40.527Z,18.7
2023-07-03T19:56:53.550Z,18.6
2023-07-03T19:59:19.400Z,18.6
2023-07-03T20:00:32.588Z,18.6
2023-07-03T20:01:45.522Z,18.6
2023-07-03T20:02:58.563Z,18.6
2023-07-03T20:04:11.551Z,18.6
2023-07-03T20:05:24.486Z,18.6
2023-07-03T20:06:37.519Z,18.6
2023-07-03T20:07:50.519Z,18.6
2023-07-03T20:09:03.634Z,18.6
2023-07-03T20:10:16.547Z,18.6
2023-07-03T20:11:29.622Z,18.6
2023-07-03T20:12:42.506Z,18.4
2023-07-03T20:13:55.543Z,18.4
2023-07-03T20:15:08.518Z,18.4
2023-07-03T20:16:21.550Z,18.4
2023-07-03T20:17:35.185Z,18.4
2023-07-03T20:18:47.603Z,18.4
2023-07-03T20:20:00.539Z,18.5
2023-07-03T20:21:13.562Z,18.5
2023-07-03T20:22:26.706Z,18.5
2023-07-03T20:23:39.845Z,18.3
2023-07-03T20:24:52.381Z,18.3
2023-07-03T20:26:05.490Z,18.3